createdAt,value
2023-02-11T00:00:42.879Z,104.65
2023-02-11T00:03:11.128Z,103.57
2023-02-11T00:05:39.447Z,104.13
2023-02-11T00:08:07.420Z,88.18
2023-02-11T00:10:35.468Z,85.30
2023-02-11T00:13:03.572Z,90.75
2023-02-11T00:15:31.545Z,96.03
2023-02-11T00:18:00.973Z,95.72
2023-02-11T00:20:28.951Z,89.22
2023-02-11T00:22:57.000Z,94.43
2023-02-11T00:25:24.976Z,92.43
2023-02-11T00:27:52.949Z,89.07
2023-02-11T00:30:21.144Z,100.38
2023-02-11T00:32:49.253Z,98.07
2023-02-11T00:35:18.856Z,93.13
2023-02-11T00:37:46.851Z,86.57
2023-02-11T00:40:16.061Z,94.15
2023-02-11T00:42:44.142Z,94.45
2023-02-11T00:45:12.128Z,93.10
2023-02-11T00:47:40.179Z,94.70
2023-02-11T00:50:09.053Z,95.75
2023-02-11T00:52:38.569Z,98.18
2023-02-11T00:55:07.765Z,98.70
2023-02-11T00:57:35.841Z,102.88
2023-02-11T01:00:04.260Z,112.85
2023-02-11T01:02:32.291Z,111.65
2023-02-11T01:05:03.421Z,109.40
2023-02-11T01:07:31.610Z,119.45
2023-02-11T01:10:01.080Z,116.45
2023-02-11T01:12:29.184Z,150.73
2023-02-11T01:14:57.299Z,124.07
2023-02-11T01:17:25.378Z,133.27
2023-02-11T01:19:53.375Z,108.53
2023-02-11T01:22:21.403Z,101.75
2023-02-11T01:24:49.703Z,99.25
2023-02-11T01:27:19.183Z,91.15
2023-02-11T01:29:47.227Z,90.57
2023-02-11T01:32:15.372Z,87.38
2023-02-11T01:34:43.512Z,90.50
2023-02-11T01:37:11.599Z,95.85
2023-02-11T01:39:39.952Z,93.20
2023-02-11T01:42:08.469Z,94.43
2023-02-11T01:44:41.273Z,94.82
2023-02-11T01:47:09.804Z,85.65
2023-02-11T01:49:42.697Z,88.75
2023-02-11T01:52:13.659Z,90.35
2023-02-11T01:55:03.104Z,92.97
2023-02-11T01:57:33.581Z,94.60
2023-02-11T02:00:11.432Z,92.80
2023-02-11T02:02:45.393Z,103.60
2023-02-11T02:05:24.135Z,104.28
2023-02-11T02:08:00.251Z,114.90
2023-02-11T02:10:30.286Z,103.68
2023-02-11T02:12:58.788Z,104.20
2023-02-11T02:15:31.020Z,100.93
2023-02-11T02:18:10.215Z,102.47
2023-02-11T02:21:14.195Z,104.55
2023-02-11T02:24:17.730Z,95.68
2023-02-11T02:27:04.794Z,93.95
2023-02-11T02:30:16.998Z,91.68
2023-02-11T02:32:54.642Z,102.82
2023-02-11T02:35:34.741Z,98.40
2023-02-11T02:38:06.363Z,100.13
2023-02-11T02:40:40.085Z,104.18
2023-02-11T02:43:11.895Z,101.50
2023-02-11T02:45:40.068Z,102.10
2023-02-11T02:48:26.031Z,96.50
2023-02-11T02:51:01.987Z,100.90
2023-02-11T02:53:41.393Z,106.25
2023-02-11T02:56:14.408Z,101.78
2023-02-11T02:59:02.458Z,106.45
2023-02-11T03:01:39.123Z,93.28
2023-02-11T03:04:19.065Z,97.45
2023-02-11T03:06:54.204Z,92.50
2023-02-11T03:09:28.185Z,89.15
2023-02-11T03:11:56.854Z,90.75
2023-02-11T03:14:28.238Z,93.97
2023-02-11T03:16:58.829Z,88.03
2023-02-11T03:19:31.748Z,89.68
2023-02-11T03:22:00.507Z,84.68
2023-02-11T03:24:32.179Z,86.13
2023-02-11T03:27:06.504Z,81.95
2023-02-11T03:29:37.933Z,81.30
2023-02-11T03:32:16.182Z,91.72
2023-02-11T03:34:49.428Z,86.38
2023-02-11T03:37:21.072Z,79.45
2023-02-11T03:39:54.889Z,83.95
2023-02-11T03:42:25.774Z,84.82
2023-02-11T03:44:59.524Z,85.95
2023-02-11T03:47:31.281Z,86.82
2023-02-11T03:50:02.197Z,82.03
2023-02-11T03:52:31.672Z,86.65
2023-02-11T03:55:04.038Z,83.90
2023-02-11T03:57:34.285Z,86.22
2023-02-11T04:00:02.520Z,118.40
2023-02-11T04:02:33.190Z,107.28
2023-02-11T04:05:03.160Z,99.43
2023-02-11T04:07:31.105Z,97.95
2023-02-11T04:09:59.209Z,97.18
2023-02-11T04:12:27.553Z,86.57
2023-02-11T04:14:55.663Z,103.22
2023-02-11T04:17:23.685Z,104.38
2023-02-11T04:19:51.660Z,98.30
2023-02-11T04:22:21.126Z,112.28
2023-02-11T04:24:49.141Z,108.22
2023-02-11T04:27:17.205Z,99.43
2023-02-11T04:29:45.426Z,99.85
2023-02-11T04:32:13.734Z,99.15
2023-02-11T04:34:41.787Z,86.22
2023-02-11T04:37:09.895Z,90.15
2023-02-11T04:39:39.405Z,91.32
2023-02-11T04:42:07.664Z,87.57
2023-02-11T04:44:35.717Z,105.22
2023-02-11T04:47:03.770Z,99.57
2023-02-11T04:49:32.234Z,103.05
2023-02-11T04:52:00.506Z,90.78
2023-02-11T04:54:28.744Z,95.88
2023-02-11T04:56:58.256Z,92.95
2023-02-11T04:59:26.264Z,93.57
2023-02-11T05:01:54.320Z,95.45
2023-02-11T05:04:22.709Z,93.85
2023-02-11T05:06:50.943Z,91.72
2023-02-11T05:09:18.955Z,92.18
2023-02-11T05:11:47.067Z,102.22
2023-02-11T05:14:16.580Z,93.20
2023-02-11T05:16:44.721Z,99.70
2023-02-11T05:19:12.762Z,98.20
2023-02-11T05:21:53.111Z,98.45
2023-02-11T05:24:24.949Z,88.05
2023-02-11T05:26:53.084Z,84.07
2023-02-11T05:29:22.655Z,97.72
2023-02-11T05:31:50.776Z,93.85
2023-02-11T05:34:18.802Z,87.50
2023-02-11T05:36:46.901Z,88.03
2023-02-11T05:39:15.039Z,80.95
2023-02-11T05:41:43.109Z,86.05
2023-02-11T05:44:11.285Z,86.30
2023-02-11T05:46:40.830Z,83.63
2023-02-11T05:49:08.963Z,80.65
2023-02-11T05:51:37.025Z,91.47
2023-02-11T05:54:05.184Z,93.55
2023-02-11T05:56:33.265Z,88.20
2023-02-11T05:59:01.416Z,83.00
2023-02-11T06:01:29.503Z,83.25
2023-02-11T06:03:59.106Z,85.85
2023-02-11T06:06:27.233Z,86.43
2023-02-11T06:08:56.472Z,77.22
2023-02-11T06:11:24.636Z,79.97
2023-02-11T06:13:52.746Z,83.57
2023-02-11T06:16:20.756Z,79.22
2023-02-11T06:18:48.863Z,78.30
2023-02-11T06:21:18.331Z,75.70
2023-02-11T06:23:46.425Z,79.93
2023-02-11T06:26:19.238Z,306.55
2023-02-11T06:28:47.488Z,186.07
2023-02-11T06:31:15.927Z,372.88
2023-02-11T06:33:44.112Z,132.27
2023-02-11T06:36:16.090Z,118.60
2023-02-11T06:38:46.302Z,105.70
2023-02-11T06:41:15.767Z,114.38
2023-02-11T06:43:44.541Z,105.47
2023-02-11T06:46:12.721Z,91.75
2023-02-11T06:48:43.069Z,90.03
2023-02-11T06:51:14.868Z,103.78
2023-02-11T06:53:46.250Z,96.82
2023-02-11T06:56:19.106Z,100.45
2023-02-11T06:58:47.814Z,100.10
2023-02-11T07:01:17.714Z,94.15
2023-02-11T07:03:47.046Z,100.20
2023-02-11T07:06:17.567Z,96.75
2023-02-11T07:08:47.648Z,105.38
2023-02-11T07:11:17.950Z,99.38
2023-02-11T07:13:46.457Z,104.63
2023-02-11T07:16:16.828Z,115.38
2023-02-11T07:18:45.553Z,111.65
2023-02-11T07:21:15.338Z,111.82
2023-02-11T07:23:43.389Z,110.00
2023-02-11T07:26:16.028Z,114.50
2023-02-11T07:28:44.929Z,112.43
2023-02-11T07:31:15.495Z,101.57
2023-02-11T07:33:45.910Z,102.72
2023-02-11T07:36:16.433Z,105.13
2023-02-11T07:38:45.356Z,95.05
2023-02-11T07:41:17.265Z,98.13
2023-02-11T07:43:45.786Z,99.53
2023-02-11T07:46:15.869Z,94.20
2023-02-11T07:48:44.221Z,97.40
2023-02-11T07:51:14.620Z,99.35
2023-02-11T07:53:42.726Z,98.95
2023-02-11T07:56:12.288Z,91.07
2023-02-11T07:58:43.182Z,86.32
2023-02-11T08:01:14.012Z,94.80
2023-02-11T08:03:42.955Z,90.07
2023-02-11T08:06:12.750Z,88.45
2023-02-11T08:08:41.674Z,87.90
2023-02-11T08:11:10.653Z,95.25
2023-02-11T08:13:38.874Z,82.43
2023-02-11T08:16:11.788Z,77.10
2023-02-11T08:18:39.781Z,78.15
2023-02-11T08:21:09.420Z,76.82
2023-02-11T08:23:38.568Z,70.20
2023-02-11T08:26:07.811Z,69.07
2023-02-11T08:28:40.009Z,65.28
2023-02-11T08:31:11.269Z,55.00
2023-02-11T08:33:40.988Z,57.78
2023-02-11T08:36:13.024Z,61.47
2023-02-11T08:38:41.217Z,53.65
2023-02-11T08:41:09.938Z,49.38
2023-02-11T08:43:41.712Z,49.90
2023-02-11T08:46:14.517Z,55.10
2023-02-11T08:48:42.650Z,51.25
2023-02-11T08:51:12.761Z,57.15
2023-02-11T08:53:40.996Z,58.25
2023-02-11T08:56:13.502Z,60.75
2023-02-11T08:58:41.942Z,58.17
2023-02-11T09:01:16.349Z,48.20
2023-02-11T09:03:44.604Z,61.47
2023-02-11T09:06:13.929Z,52.25
2023-02-11T09:08:46.360Z,53.28
2023-02-11T09:11:15.141Z,50.33
2023-02-11T09:13:44.527Z,50.58
2023-02-11T09:16:19.364Z,57.63
2023-02-11T09:21:17.398Z,59.38
2023-02-11T09:23:47.796Z,58.78
2023-02-11T09:26:19.737Z,51.65
2023-02-11T09:28:48.620Z,55.83
2023-02-11T09:31:21.153Z,43.53
2023-02-11T09:33:51.721Z,43.35
2023-02-11T09:36:21.760Z,46.35
2023-02-11T09:38:50.432Z,46.47
2023-02-11T09:41:37.052Z,46.63
2023-02-11T09:44:08.735Z,36.38
2023-02-11T09:46:42.513Z,43.08
2023-02-11T09:49:19.386Z,41.03
2023-02-11T09:51:50.855Z,42.40
2023-02-11T09:54:24.649Z,42.50
2023-02-11T09:56:52.889Z,37.13
2023-02-11T09:59:21.068Z,35.22
2023-02-11T10:01:54.576Z,37.60
2023-02-11T10:04:36.345Z,34.03
2023-02-11T10:07:12.827Z,29.23
2023-02-11T10:10:02.928Z,32.17
2023-02-11T10:12:44.876Z,29.48
2023-02-11T10:15:22.802Z,27.13
2023-02-11T10:18:08.772Z,26.63
2023-02-11T10:20:39.616Z,27.92
2023-02-11T10:23:15.062Z,29.85
2023-02-11T10:25:45.951Z,26.63
2023-02-11T10:28:17.082Z,29.63
2023-02-11T10:30:51.123Z,26.60
2023-02-11T10:33:25.885Z,28.33
2023-02-11T10:35:54.125Z,37.38
2023-02-11T10:38:22.237Z,32.58
2023-02-11T10:40:50.713Z,32.50
2023-02-11T10:43:22.577Z,29.05
2023-02-11T10:45:53.006Z,27.27
2023-02-11T10:48:42.911Z,31.45
2023-02-11T10:51:19.875Z,30.88
2023-02-11T10:53:49.183Z,28.88
2023-02-11T10:56:24.857Z,29.98
2023-02-11T10:58:58.902Z,32.20
2023-02-11T11:01:41.179Z,31.30
2023-02-11T11:04:40.878Z,31.35
2023-02-11T11:07:19.200Z,27.70
2023-02-11T11:09:52.394Z,29.67
2023-02-11T11:12:48.834Z,28.20
2023-02-11T11:15:22.103Z,31.25
2023-02-11T11:17:50.634Z,34.45
2023-02-11T11:20:36.308Z,32.97
2023-02-11T11:23:18.124Z,31.80
2023-02-11T11:25:59.468Z,34.92
2023-02-11T11:28:30.864Z,33.13
2023-02-11T11:31:01.089Z,33.25
2023-02-11T11:33:31.504Z,35.97
2023-02-11T11:36:06.096Z,32.83
2023-02-11T11:38:36.248Z,30.92
2023-02-11T11:41:18.928Z,34.13
2023-02-11T11:43:58.040Z,36.58
2023-02-11T11:46:28.938Z,30.38
2023-02-11T11:49:04.782Z,34.17
2023-02-11T11:51:36.191Z,35.72
2023-02-11T11:54:08.017Z,38.97
2023-02-11T11:56:40.832Z,35.05
2023-02-11T11:59:16.651Z,38.03
2023-02-11T12:02:03.244Z,33.45
2023-02-11T12:04:57.682Z,30.85
2023-02-11T12:07:42.858Z,33.28
2023-02-11T12:10:32.908Z,30.00
2023-02-11T12:13:13.259Z,29.05
2023-02-11T12:15:50.862Z,26.83
2023-02-11T12:18:38.767Z,34.70
2023-02-11T12:21:34.022Z,24.85
2023-02-11T12:24:19.033Z,29.63
2023-02-11T12:26:53.684Z,27.58
2023-02-11T12:29:33.297Z,32.63
2023-02-11T12:32:16.305Z,27.00
2023-02-11T12:35:13.550Z,28.88
2023-02-11T12:37:58.002Z,27.08
2023-02-11T12:40:37.435Z,30.10
2023-02-11T12:43:16.655Z,30.10
2023-02-11T12:46:29.123Z,25.45
2023-02-11T12:49:20.831Z,23.70
2023-02-11T12:52:01.656Z,30.48
2023-02-11T12:54:33.211Z,24.80
2023-02-11T12:57:11.295Z,27.33
2023-02-11T12:59:50.728Z,26.85
2023-02-11T13:02:31.775Z,27.77
2023-02-11T13:05:05.369Z,27.02
2023-02-11T13:07:39.535Z,26.67
2023-02-11T13:10:28.120Z,29.63
2023-02-11T13:13:18.152Z,28.55
2023-02-11T13:15:52.095Z,29.27
2023-02-11T13:18:45.975Z,27.48
2023-02-11T13:21:47.982Z,27.90
2023-02-11T13:24:28.978Z,29.55
2023-02-11T13:27:08.332Z,30.00
2023-02-11T13:30:04.384Z,29.27
2023-02-11T13:33:06.652Z,30.92
2023-02-11T13:35:36.201Z,29.65
2023-02-11T13:38:06.278Z,28.80
2023-02-11T13:40:36.640Z,27.60
2023-02-11T13:43:07.236Z,28.95
2023-02-11T13:45:42.587Z,30.00
2023-02-11T13:48:20.806Z,28.17
2023-02-11T13:50:52.391Z,29.10
2023-02-11T13:53:21.657Z,31.45
2023-02-11T13:55:52.575Z,29.55
2023-02-11T13:58:37.275Z,30.85
2023-02-11T14:01:07.264Z,29.88
2023-02-11T14:03:55.386Z,31.58
2023-02-11T14:06:43.665Z,30.25
2023-02-11T14:09:40.154Z,34.70
2023-02-11T14:12:36.205Z,28.23
2023-02-11T14:15:28.729Z,31.67
2023-02-11T14:17:58.162Z,29.77
2023-02-11T14:20:44.626Z,32.90
2023-02-11T14:23:25.696Z,31.65
2023-02-11T14:26:07.037Z,31.60
2023-02-11T14:28:36.141Z,32.28
2023-02-11T14:31:11.665Z,32.25
2023-02-11T14:34:23.975Z,31.73
2023-02-11T14:37:07.280Z,33.00
2023-02-11T14:39:49.587Z,33.80
2023-02-11T14:42:21.065Z,35.88
2023-02-11T14:44:51.847Z,33.30
2023-02-11T14:47:23.789Z,38.20
2023-02-11T14:49:52.086Z,36.70
2023-02-11T14:52:28.857Z,40.55
2023-02-11T14:55:07.301Z,38.33
2023-02-11T14:57:35.378Z,42.97
2023-02-11T15:00:06.133Z,42.10
2023-02-11T15:02:36.690Z,38.65
2023-02-11T15:05:20.164Z,42.40
2023-02-11T15:07:52.962Z,41.55
2023-02-11T15:10:28.308Z,42.55
2023-02-11T15:12:57.306Z,41.58
2023-02-11T15:15:25.431Z,45.58
2023-02-11T15:17:54.170Z,42.60
2023-02-11T15:20:27.060Z,43.17
2023-02-11T15:23:00.949Z,40.60
2023-02-11T15:25:31.261Z,41.50
2023-02-11T15:28:01.213Z,43.08
2023-02-11T15:30:34.093Z,41.85
2023-02-11T15:33:05.600Z,44.97
2023-02-11T15:35:36.702Z,42.90
2023-02-11T15:38:08.014Z,42.25
2023-02-11T15:40:38.444Z,42.25
2023-02-11T15:43:08.261Z,43.45
2023-02-11T15:45:39.680Z,46.80
2023-02-11T15:48:11.591Z,46.13
2023-02-11T15:50:42.194Z,44.65
2023-02-11T15:53:31.197Z,45.08
2023-02-11T15:56:11.168Z,45.83
2023-02-11T15:58:40.132Z,43.70
2023-02-11T16:01:09.667Z,48.53
2023-02-11T16:03:37.969Z,46.08
2023-02-11T16:06:21.486Z,44.72
2023-02-11T16:09:02.705Z,46.17
2023-02-11T16:11:33.152Z,48.70
2023-02-11T16:14:03.689Z,49.50
2023-02-11T16:16:35.956Z,47.80
2023-02-11T16:19:06.284Z,53.95
2023-02-11T16:21:39.144Z,52.55
2023-02-11T16:24:18.720Z,54.50
2023-02-11T16:26:50.080Z,47.15
2023-02-11T16:29:22.089Z,51.25
2023-02-11T16:31:51.143Z,50.55
2023-02-11T16:34:21.097Z,52.78
2023-02-11T16:36:49.921Z,53.08
2023-02-11T16:39:22.493Z,54.40
2023-02-11T16:41:52.089Z,52.03
2023-02-11T16:44:20.632Z,56.63
2023-02-11T16:46:49.281Z,57.05
2023-02-11T16:49:21.728Z,57.30
2023-02-11T16:51:52.613Z,59.35
2023-02-11T16:54:22.285Z,52.35
2023-02-11T16:57:03.002Z,57.53
2023-02-11T16:59:31.031Z,63.30
2023-02-11T17:01:59.350Z,54.53
2023-02-11T17:04:30.921Z,53.80
2023-02-11T17:06:59.039Z,53.00
2023-02-11T17:09:31.093Z,54.08
2023-02-11T17:12:00.257Z,55.50
2023-02-11T17:14:28.486Z,50.40
2023-02-11T17:16:56.547Z,55.95
2023-02-11T17:19:25.108Z,52.85
2023-02-11T17:21:53.961Z,51.40
2023-02-11T17:24:22.982Z,50.00
2023-02-11T17:26:52.363Z,51.13
2023-02-11T17:29:22.302Z,57.55
2023-02-11T17:31:51.667Z,55.25
2023-02-11T17:34:20.675Z,50.72
2023-02-11T17:36:48.800Z,51.20
2023-02-11T17:39:17.424Z,52.65
2023-02-11T17:41:45.541Z,47.97
2023-02-11T17:44:16.481Z,52.08
2023-02-11T17:46:44.813Z,50.58
2023-02-11T17:49:13.253Z,56.60
2023-02-11T17:51:41.291Z,48.83
2023-02-11T17:54:12.060Z,50.65
2023-02-11T17:56:40.643Z,54.25
2023-02-11T17:59:09.785Z,51.13
2023-02-11T18:01:41.340Z,48.83
2023-02-11T18:04:11.846Z,54.15
2023-02-11T18:06:40.655Z,54.70
2023-02-11T18:09:10.915Z,56.58
2023-02-11T18:11:45.626Z,53.95
2023-02-11T18:14:16.930Z,48.50
2023-02-11T18:16:47.561Z,52.00
2023-02-11T18:19:15.710Z,52.45
2023-02-11T18:21:43.794Z,54.45
2023-02-11T18:24:11.942Z,53.92
2023-02-11T18:26:41.731Z,51.42
2023-02-11T18:29:10.242Z,50.03
2023-02-11T18:31:39.547Z,50.78
2023-02-11T18:34:10.715Z,46.17
2023-02-11T18:36:38.911Z,47.08
2023-02-11T18:39:07.308Z,48.80
2023-02-11T18:41:35.336Z,50.53
2023-02-11T18:44:04.624Z,55.00
2023-02-11T18:46:32.802Z,49.15
2023-02-11T18:49:00.915Z,55.78
2023-02-11T18:51:32.416Z,51.63
2023-02-11T18:54:01.354Z,56.88
2023-02-11T18:56:29.487Z,53.97
2023-02-11T18:59:01.261Z,54.22
2023-02-11T19:01:31.246Z,54.40
2023-02-11T19:04:02.973Z,53.10
2023-02-11T19:06:34.224Z,47.55
2023-02-11T19:09:05.459Z,51.88
2023-02-11T19:11:50.483Z,47.92
2023-02-11T19:14:22.036Z,48.60
2023-02-11T19:16:51.420Z,50.33
2023-02-11T19:19:20.352Z,48.85
2023-02-11T19:21:49.922Z,51.13
2023-02-11T19:24:19.947Z,46.72
2023-02-11T19:26:49.156Z,54.40
2023-02-11T19:29:17.694Z,52.30
2023-02-11T19:31:46.548Z,47.90
2023-02-11T19:34:19.933Z,53.33
2023-02-11T19:36:50.434Z,52.00
2023-02-11T19:39:18.660Z,49.03
2023-02-11T19:41:46.774Z,45.80
2023-02-11T19:44:16.239Z,52.90
2023-02-11T19:46:44.279Z,50.05
2023-02-11T19:49:15.546Z,47.55
2023-02-11T19:51:43.553Z,51.60
2023-02-11T19:54:12.951Z,48.10
2023-02-11T19:56:40.963Z,44.03
2023-02-11T19:59:09.136Z,42.53
2023-02-11T20:01:37.917Z,43.45
2023-02-11T20:04:06.464Z,41.80
2023-02-11T20:06:36.191Z,44.88
2023-02-11T20:09:07.384Z,39.95
2023-02-11T20:11:38.177Z,48.28
2023-02-11T20:14:06.921Z,41.45
2023-02-11T20:16:47.379Z,42.55
2023-02-11T20:19:18.522Z,41.05
2023-02-11T20:21:48.334Z,47.08
2023-02-11T20:24:16.691Z,53.33
2023-02-11T20:26:48.163Z,48.47
2023-02-11T20:29:16.655Z,49.08
2023-02-11T20:31:44.875Z,55.08
2023-02-11T20:34:13.156Z,53.40
2023-02-11T20:36:41.902Z,49.70
2023-02-11T20:39:17.148Z,57.03
2023-02-11T20:41:47.375Z,60.08
2023-02-11T20:44:15.770Z,58.63
2023-02-11T20:46:47.910Z,56.47
2023-02-11T20:49:18.938Z,57.80
2023-02-11T20:51:49.265Z,58.88
2023-02-11T20:54:19.165Z,50.80
2023-02-11T20:56:50.753Z,54.17
2023-02-11T20:59:19.342Z,55.63
2023-02-11T21:01:49.479Z,57.50
2023-02-11T21:04:19.771Z,56.28
2023-02-11T21:06:50.907Z,61.22
2023-02-11T21:09:20.980Z,56.47
2023-02-11T21:11:52.007Z,59.05
2023-02-11T21:14:22.283Z,60.40
2023-02-11T21:16:50.428Z,59.58
2023-02-11T21:19:18.586Z,59.20
2023-02-11T21:21:47.105Z,61.72
2023-02-11T21:24:15.446Z,56.15
2023-02-11T21:26:43.846Z,55.00
2023-02-11T21:29:13.659Z,58.05
2023-02-11T21:31:41.801Z,60.33
2023-02-11T21:34:11.178Z,59.78
2023-02-11T21:36:39.288Z,57.38
2023-02-11T21:39:07.370Z,65.78
2023-02-11T21:41:35.597Z,61.92
2023-02-11T21:44:03.719Z,61.95
2023-02-11T21:46:33.667Z,56.05
2023-02-11T21:49:01.828Z,55.60
2023-02-11T21:51:30.465Z,71.93
2023-02-11T21:53:59.856Z,64.45
2023-02-11T21:56:29.163Z,64.07
2023-02-11T21:58:58.885Z,59.03
2023-02-11T22:01:30.846Z,62.03
2023-02-11T22:04:00.491Z,66.15
2023-02-11T22:06:31.627Z,60.92
2023-02-11T22:09:02.725Z,63.80
2023-02-11T22:11:31.071Z,62.95
2023-02-11T22:13:59.324Z,64.53
2023-02-11T22:16:28.784Z,65.97
2023-02-11T22:18:58.996Z,58.28
2023-02-11T22:21:28.681Z,64.63
2023-02-11T22:23:57.348Z,62.92
2023-02-11T22:26:27.055Z,63.00
2023-02-11T22:28:55.646Z,68.70
2023-02-11T22:31:25.840Z,65.68
2023-02-11T22:33:54.228Z,63.80
2023-02-11T22:36:24.086Z,67.10
2023-02-11T22:38:54.506Z,69.45
2023-02-11T22:41:24.019Z,73.53
2023-02-11T22:43:52.235Z,65.47
2023-02-11T22:46:21.020Z,70.00
2023-02-11T22:48:49.962Z,70.78
2023-02-11T22:51:20.638Z,69.15
2023-02-11T22:53:54.409Z,65.57
2023-02-11T22:56:22.809Z,67.65
2023-02-11T22:58:53.301Z,69.13
2023-02-11T23:01:21.393Z,67.00
2023-02-11T23:03:49.892Z,64.30
2023-02-11T23:06:18.156Z,63.03
2023-02-11T23:08:46.767Z,64.70
2023-02-11T23:11:18.671Z,61.65
2023-02-11T23:13:48.388Z,66.65
2023-02-11T23:16:18.507Z,60.08
2023-02-11T23:18:48.129Z,61.00
2023-02-11T23:21:21.131Z,64.18
2023-02-11T23:23:50.779Z,62.30
2023-02-11T23:26:20.336Z,64.22
2023-02-11T23:28:48.734Z,64.47
2023-02-11T23:31:19.523Z,60.42
2023-02-11T23:33:49.510Z,57.15
2023-02-11T23:36:19.071Z,66.53
2023-02-11T23:38:47.345Z,73.53
2023-02-11T23:41:16.210Z,73.88
2023-02-11T23:43:51.079Z,68.65
2023-02-11T23:46:19.893Z,65.15
2023-02-11T23:48:48.021Z,67.57
2023-02-11T23:51:16.648Z,66.07
2023-02-11T23:53:45.943Z,65.13
2023-02-11T23:56:17.284Z,64.07
2023-02-11T23:58:49.469Z,60.17
